Time;durP1;ratioP1;P1;durP2;ratioP2;P2;SDS_P1;SDS_P2;PMS_P1;PMS_P2;Temp;Humidity;BMP_temperature;BMP_pressure;BME280_temperature;BME280_humidity;BME280_pressure;Samples;Min_cycle;Max_cycle;Signal;HPM_P1;HPM_P2
2023/05/20 00:00:56;;;;;;;1.45;1.35;;;10.00;99.90;;;;;;5047920;28;20045;-71
2023/05/20 00:03:21;;;;;;;0.77;0.77;;;10.00;99.90;;;;;;5045160;28;20037;-71
2023/05/20 00:05:47;;;;;;;0.50;0.50;;;10.00;99.90;;;;;;5044706;28;20175;-71
2023/05/20 00:08:13;;;;;;;0.63;0.63;;;9.90;99.90;;;;;;5046286;28;20037;-71
2023/05/20 00:10:40;;;;;;;1.10;0.43;;;9.90;99.90;;;;;;5041455;28;20033;-71
2023/05/20 00:13:05;;;;;;;0.50;0.50;;;9.90;99.90;;;;;;5046446;28;20150;-71
2023/05/20 00:15:32;;;;;;;1.35;0.77;;;9.90;99.90;;;;;;5047948;28;20497;-71
2023/05/20 00:17:59;;;;;;;0.60;0.40;;;9.80;99.90;;;;;;5049104;28;20049;-70
2023/05/20 00:20:25;;;;;;;1.30;1.08;;;9.80;99.90;;;;;;5046779;28;20048;-71
2023/05/20 00:22:50;;;;;;;0.52;0.52;;;9.90;99.90;;;;;;5039995;28;20056;-71
2023/05/20 00:25:16;;;;;;;0.30;0.30;;;9.90;99.90;;;;;;5037894;28;20053;-71
2023/05/20 00:27:42;;;;;;;1.85;1.17;;;9.90;99.90;;;;;;5041912;28;20037;-71
2023/05/20 00:30:09;;;;;;;0.60;0.60;;;9.80;99.90;;;;;;5046095;28;20040;-70
2023/05/20 00:32:34;;;;;;;0.85;0.85;;;9.90;99.90;;;;;;5052721;28;20446;-71
2023/05/20 00:35:01;;;;;;;1.83;0.57;;;9.90;99.90;;;;;;5045669;28;20084;-71
2023/05/20 00:37:27;;;;;;;0.38;0.38;;;10.00;99.90;;;;;;5049274;28;20048;-71
2023/05/20 00:39:52;;;;;;;0.60;0.50;;;10.00;99.90;;;;;;5043377;28;20052;-71
2023/05/20 00:42:26;;;;;;;0.60;0.60;;;10.00;99.90;;;;;;5048781;28;20148;-70
2023/05/20 00:44:52;;;;;;;0.63;0.60;;;10.00;99.90;;;;;;5044364;28;20041;-71
2023/05/20 00:47:22;;;;;;;2.50;0.52;;;10.10;99.90;;;;;;5044357;28;20550;-71
2023/05/20 00:49:49;;;;;;;0.50;0.50;;;10.10;99.90;;;;;;5046112;28;20044;-71
2023/05/20 00:52:16;;;;;;;0.80;0.80;;;10.10;99.90;;;;;;5053937;28;20060;-71
2023/05/20 00:54:42;;;;;;;1.40;1.00;;;10.10;99.90;;;;;;5048537;28;20041;-70
2023/05/20 00:57:08;;;;;;;0.55;0.50;;;10.10;99.90;;;;;;5044858;28;20120;-70
2023/05/20 00:59:37;;;;;;;0.75;0.60;;;10.20;99.90;;;;;;5046330;28;20080;-71
2023/05/20 01:02:04;;;;;;;0.55;0.52;;;10.20;99.90;;;;;;5046458;28;20059;-71
2023/05/20 01:04:30;;;;;;;0.38;0.38;;;10.20;99.90;;;;;;5045045;28;20128;-71
2023/05/20 01:06:59;;;;;;;0.60;0.60;;;10.30;99.90;;;;;;5050181;28;20405;-71
2023/05/20 01:09:25;;;;;;;1.25;1.17;;;10.30;99.90;;;;;;5050505;28;20098;-71
2023/05/20 01:12:18;;;;;;;0.55;0.55;;;10.30;99.90;;;;;;5050323;28;20044;-71
2023/05/20 01:14:50;;;;;;;0.50;0.50;;;10.30;99.90;;;;;;5045128;28;20468;-71
2023/05/20 01:17:19;;;;;;;0.60;0.60;;;10.30;99.90;;;;;;5051948;28;20512;-71
2023/05/20 01:19:47;;;;;;;0.30;0.30;;;10.30;99.90;;;;;;5046313;28;20047;-71
2023/05/20 01:22:14;;;;;;;0.45;0.45;;;10.20;99.90;;;;;;5053226;28;20055;-71
2023/05/20 01:24:52;;;;;;;0.35;0.35;;;10.20;99.90;;;;;;5043823;28;20048;-71
2023/05/20 01:27:19;;;;;;;0.47;0.47;;;10.30;99.90;;;;;;5053168;28;20056;-71
2023/05/20 01:29:49;;;;;;;0.50;0.50;;;10.30;99.90;;;;;;5047444;28;20049;-71
2023/05/20 01:32:37;;;;;;;0.50;0.50;;;10.30;99.90;;;;;;5046381;28;20053;-71
2023/05/20 01:35:06;;;;;;;0.15;0.15;;;10.30;99.90;;;;;;5040076;28;20131;-71
2023/05/20 01:37:33;;;;;;;0.52;0.52;;;10.30;99.90;;;;;;5058319;28;20055;-71
2023/05/20 01:39:59;;;;;;;1.30;1.23;;;10.30;99.90;;;;;;5050707;28;20048;-71
2023/05/20 01:42:28;;;;;;;0.50;0.50;;;10.30;99.90;;;;;;5051674;28;20040;-71
2023/05/20 01:44:54;;;;;;;0.40;0.40;;;10.30;99.90;;;;;;5054314;28;20080;-71
2023/05/20 01:47:20;;;;;;;0.50;0.50;;;10.30;99.90;;;;;;5044510;28;20086;-71
2023/05/20 01:49:46;;;;;;;0.40;0.40;;;10.30;99.90;;;;;;5049158;28;20811;-71
2023/05/20 01:52:12;;;;;;;0.57;0.57;;;10.30;99.90;;;;;;5053858;28;20076;-71
2023/05/20 01:54:38;;;;;;;0.50;0.50;;;10.30;99.90;;;;;;5052175;28;20115;-70
2023/05/20 01:57:04;;;;;;;0.35;0.35;;;10.30;99.90;;;;;;5049316;28;20569;-70
2023/05/20 01:59:29;;;;;;;0.30;0.30;;;10.30;99.90;;;;;;5049973;28;20033;-70
2023/05/20 02:01:55;;;;;;;0.30;0.30;;;10.30;99.90;;;;;;5048880;28;20090;-70
2023/05/20 02:04:21;;;;;;;1.20;0.43;;;10.40;99.90;;;;;;5050506;28;20053;-71
2023/05/20 02:06:47;;;;;;;0.63;0.63;;;10.30;99.90;;;;;;5054040;28;20064;-71
2023/05/20 02:09:13;;;;;;;0.93;0.93;;;10.30;99.90;;;;;;5046248;28;20048;-70
2023/05/20 02:11:39;;;;;;;0.85;0.85;;;10.30;99.90;;;;;;5047809;28;20473;-71
2023/05/20 02:14:04;;;;;;;1.55;1.15;;;10.30;99.90;;;;;;5051986;28;20119;-70
2023/05/20 02:16:30;;;;;;;0.40;0.40;;;10.30;99.90;;;;;;5051958;28;20048;-71
2023/05/20 02:18:57;;;;;;;0.47;0.43;;;10.30;99.90;;;;;;5043663;28;20040;-70
2023/05/20 02:21:24;;;;;;;0.47;0.47;;;10.30;99.90;;;;;;5047415;28;20041;-71
2023/05/20 02:23:51;;;;;;;0.77;0.77;;;10.30;99.90;;;;;;5048459;28;20181;-71
2023/05/20 02:26:16;;;;;;;0.70;0.70;;;10.30;99.90;;;;;;5043953;28;20445;-71
2023/05/20 02:28:49;;;;;;;1.55;0.50;;;10.20;99.90;;;;;;5048907;28;20052;-71
2023/05/20 02:31:16;;;;;;;0.30;0.30;;;10.20;99.90;;;;;;5049580;28;20505;-71
2023/05/20 02:33:42;;;;;;;1.00;0.98;;;10.10;99.90;;;;;;5050112;28;20049;-70
2023/05/20 02:36:07;;;;;;;0.80;0.80;;;10.20;99.90;;;;;;5050394;28;20048;-70
2023/05/20 02:38:34;;;;;;;2.28;1.25;;;10.10;99.90;;;;;;5049899;28;20041;-71
2023/05/20 02:41:00;;;;;;;0.75;0.73;;;10.10;99.90;;;;;;5050850;28;20052;-71
2023/05/20 02:43:27;;;;;;;0.40;0.40;;;10.10;99.90;;;;;;5047202;28;20191;-70
2023/05/20 02:45:52;;;;;;;0.65;0.65;;;10.10;99.90;;;;;;5052499;28;20516;-71
2023/05/20 02:48:18;;;;;;;0.50;0.50;;;10.10;99.90;;;;;;5047251;28;20037;-71
2023/05/20 02:50:45;;;;;;;0.70;0.70;;;10.10;99.90;;;;;;5048865;28;20048;-71
2023/05/20 02:53:10;;;;;;;2.00;1.02;;;10.10;99.90;;;;;;5048041;28;20065;-70
2023/05/20 02:55:36;;;;;;;0.88;0.85;;;10.10;99.90;;;;;;5055596;28;20048;-70
2023/05/20 02:58:02;;;;;;;0.40;0.40;;;10.10;99.90;;;;;;5049891;28;20099;-70
2023/05/20 03:00:30;;;;;;;0.55;0.55;;;10.10;99.90;;;;;;5042214;28;20080;-70
2023/05/20 03:02:56;;;;;;;0.50;0.50;;;10.10;99.90;;;;;;5049075;28;20426;-71
2023/05/20 03:05:21;;;;;;;0.50;0.50;;;10.00;99.90;;;;;;5056233;28;20287;-70
2023/05/20 03:07:47;;;;;;;0.60;0.60;;;10.00;99.90;;;;;;5054451;28;20059;-71
2023/05/20 03:10:13;;;;;;;0.40;0.40;;;10.00;99.90;;;;;;5052027;28;20071;-71
2023/05/20 03:12:39;;;;;;;0.60;0.60;;;10.00;99.90;;;;;;5047790;28;20075;-71
2023/05/20 03:15:06;;;;;;;0.60;0.60;;;10.00;99.90;;;;;;5048513;28;20049;-71
2023/05/20 03:17:31;;;;;;;0.50;0.50;;;10.00;99.90;;;;;;5055780;28;20383;-70
2023/05/20 03:19:57;;;;;;;0.40;0.40;;;10.00;99.90;;;;;;5046708;28;20107;-71
2023/05/20 03:22:23;;;;;;;0.40;0.40;;;10.00;99.90;;;;;;5053431;28;20068;-71
2023/05/20 03:24:49;;;;;;;0.80;0.80;;;10.00;99.90;;;;;;5049814;28;20156;-71
2023/05/20 03:27:14;;;;;;;0.57;0.57;;;10.00;99.90;;;;;;5050159;28;20056;-71
2023/05/20 03:29:40;;;;;;;0.40;0.40;;;10.00;99.90;;;;;;5046037;28;20049;-71
2023/05/20 03:32:06;;;;;;;0.40;0.40;;;10.00;99.90;;;;;;5051558;28;20114;-71
2023/05/20 03:34:32;;;;;;;0.95;0.68;;;10.00;99.90;;;;;;5047191;28;20098;-71
2023/05/20 03:36:59;;;;;;;0.40;0.40;;;10.00;99.90;;;;;;5053720;28;20045;-71
2023/05/20 03:39:24;;;;;;;0.30;0.30;;;10.00;99.90;;;;;;5045498;28;20048;-70
2023/05/20 03:41:50;;;;;;;0.30;0.30;;;10.00;99.90;;;;;;5049502;28;20060;-70
2023/05/20 03:44:16;;;;;;;0.30;0.30;;;10.00;99.90;;;;;;5050487;28;20068;-71
2023/05/20 03:46:41;;;;;;;1.48;0.70;;;10.00;99.90;;;;;;5044635;28;20053;-71
2023/05/20 03:49:07;;;;;;;0.40;0.40;;;10.00;99.90;;;;;;5042884;28;20048;-72
2023/05/20 03:51:33;;;;;;;0.35;0.35;;;10.10;99.90;;;;;;5042704;28;20121;-71
2023/05/20 03:53:58;;;;;;;0.40;0.40;;;10.10;99.90;;;;;;5049492;28;20507;-71
2023/05/20 03:56:25;;;;;;;0.20;0.20;;;10.10;99.90;;;;;;5049450;28;20052;-71
2023/05/20 03:58:52;;;;;;;0.47;0.47;;;10.10;99.90;;;;;;5046265;28;20053;-71
2023/05/20 04:01:20;;;;;;;0.40;0.40;;;10.10;99.90;;;;;;5042552;28;20048;-71
2023/05/20 04:03:45;;;;;;;0.40;0.40;;;10.20;99.90;;;;;;5044141;28;20053;-71
2023/05/20 04:06:13;;;;;;;0.30;0.30;;;10.20;99.90;;;;;;5048265;28;20052;-71
2023/05/20 04:08:38;;;;;;;0.30;0.30;;;10.20;99.90;;;;;;5051376;28;20049;-72
2023/05/20 04:11:04;;;;;;;0.40;0.40;;;10.20;99.90;;;;;;5044513;28;20033;-71
2023/05/20 04:13:30;;;;;;;0.52;0.52;;;10.20;99.90;;;;;;5049400;28;20143;-71
2023/05/20 04:15:56;;;;;;;0.43;0.43;;;10.30;99.90;;;;;;5044726;28;20059;-71
2023/05/20 04:18:21;;;;;;;0.30;0.30;;;10.40;99.90;;;;;;5052701;28;20123;-71
2023/05/20 04:20:47;;;;;;;0.38;0.38;;;10.30;99.90;;;;;;5046045;28;20056;-71
2023/05/20 04:23:13;;;;;;;0.35;0.35;;;10.40;99.90;;;;;;5046068;28;20045;-70
2023/05/20 04:25:40;;;;;;;0.38;0.38;;;10.50;99.90;;;;;;5047760;28;20048;-71
2023/05/20 04:28:05;;;;;;;0.40;0.40;;;10.60;99.90;;;;;;5050338;28;20052;-71
2023/05/20 04:30:32;;;;;;;0.50;0.50;;;10.80;99.90;;;;;;5045861;28;20041;-71
2023/05/20 04:32:58;;;;;;;0.85;0.70;;;11.00;99.90;;;;;;5044827;28;20525;-71
2023/05/20 04:35:24;;;;;;;0.68;0.68;;;11.00;99.90;;;;;;5044995;28;20068;-71
2023/05/20 04:37:52;;;;;;;0.77;0.77;;;11.10;99.90;;;;;;5044933;28;20056;-71
2023/05/20 04:40:19;;;;;;;1.00;1.00;;;11.30;99.90;;;;;;5045553;28;20052;-71
2023/05/20 04:42:45;;;;;;;1.50;1.15;;;11.70;99.90;;;;;;5044192;28;20471;-71
2023/05/20 04:45:12;;;;;;;1.33;1.23;;;11.60;99.90;;;;;;5039713;28;20065;-71
2023/05/20 04:47:38;;;;;;;1.38;1.27;;;11.60;99.90;;;;;;5044780;28;20069;-71
2023/05/20 04:50:09;;;;;;;0.55;0.55;;;11.60;99.90;;;;;;5044352;28;20410;-71
2023/05/20 04:52:38;;;;;;;1.25;1.17;;;11.50;99.90;;;;;;5040628;28;20061;-71
2023/05/20 04:55:08;;;;;;;0.60;0.60;;;11.50;99.90;;;;;;5047215;28;20558;-71
2023/05/20 04:57:35;;;;;;;1.10;1.05;;;11.50;99.90;;;;;;5041456;28;20447;-71
2023/05/20 05:00:01;;;;;;;0.82;0.82;;;11.60;99.90;;;;;;5043170;28;20057;-71
2023/05/20 05:02:27;;;;;;;1.05;1.05;;;11.60;99.90;;;;;;5042175;28;20209;-71
2023/05/20 05:04:53;;;;;;;0.77;0.70;;;11.70;99.90;;;;;;5041922;28;20060;-71
2023/05/20 05:07:20;;;;;;;1.48;1.38;;;11.80;99.90;;;;;;5037347;28;20045;-71
2023/05/20 05:09:46;;;;;;;1.15;1.15;;;11.90;99.90;;;;;;5038974;28;20128;-71
2023/05/20 05:12:11;;;;;;;1.45;1.35;;;12.00;99.90;;;;;;5040311;28;20044;-71
2023/05/20 05:14:37;;;;;;;2.10;1.52;;;12.30;99.90;;;;;;5044194;28;20037;-71
2023/05/20 05:17:03;;;;;;;1.50;1.40;;;12.20;99.90;;;;;;5042123;28;20041;-71
2023/05/20 05:19:29;;;;;;;1.05;1.02;;;12.20;99.90;;;;;;5044880;28;20066;-71
2023/05/20 05:21:55;;;;;;;0.77;0.77;;;12.20;99.90;;;;;;5045212;28;20506;-71
2023/05/20 05:24:20;;;;;;;2.33;2.13;;;12.20;99.90;;;;;;5041976;28;20049;-71
2023/05/20 05:26:46;;;;;;;2.20;2.05;;;12.20;99.90;;;;;;5041140;28;20047;-71
2023/05/20 05:29:12;;;;;;;2.28;1.15;;;12.20;99.90;;;;;;5042714;28;20077;-71
2023/05/20 05:31:37;;;;;;;1.42;1.33;;;12.20;99.90;;;;;;5039639;28;20044;-71
2023/05/20 05:34:03;;;;;;;1.95;1.40;;;12.20;99.90;;;;;;5040877;28;20517;-72
2023/05/20 05:36:32;;;;;;;1.92;1.05;;;12.30;99.90;;;;;;5041646;28;20414;-71
2023/05/20 05:38:58;;;;;;;1.15;1.15;;;12.30;99.90;;;;;;5039074;28;20055;-71
2023/05/20 05:41:23;;;;;;;2.47;1.02;;;12.30;99.90;;;;;;5043623;28;20417;-71
2023/05/20 05:43:49;;;;;;;1.88;1.75;;;12.30;99.90;;;;;;5042206;28;20052;-72
2023/05/20 05:46:15;;;;;;;1.50;1.42;;;12.40;99.90;;;;;;5050592;28;20566;-71
2023/05/20 05:48:41;;;;;;;1.45;0.95;;;12.40;99.90;;;;;;5039347;28;20540;-71
2023/05/20 05:51:07;;;;;;;1.33;1.25;;;12.40;99.90;;;;;;5048853;28;20037;-72
2023/05/20 05:53:33;;;;;;;0.50;0.50;;;12.40;99.90;;;;;;5040281;28;20422;-71
2023/05/20 05:55:59;;;;;;;1.05;1.05;;;12.40;99.90;;;;;;5041405;28;20067;-71
2023/05/20 05:58:24;;;;;;;2.38;0.90;;;12.50;99.90;;;;;;5044820;28;20072;-71
2023/05/20 06:00:51;;;;;;;1.75;1.63;;;12.60;99.90;;;;;;5043820;28;20037;-71
2023/05/20 06:03:17;;;;;;;0.65;0.65;;;12.50;99.90;;;;;;5042148;28;20486;-71
2023/05/20 06:05:46;;;;;;;2.83;1.60;;;12.70;99.90;;;;;;5042748;28;20051;-71
2023/05/20 06:08:12;;;;;;;0.60;0.60;;;12.70;99.90;;;;;;5046588;28;20063;-71
2023/05/20 06:10:37;;;;;;;0.98;0.88;;;12.80;99.90;;;;;;5042920;28;20041;-71
2023/05/20 06:13:03;;;;;;;3.63;1.75;;;12.80;99.90;;;;;;5044006;28;20040;-71
2023/05/20 06:15:30;;;;;;;10.05;1.25;;;12.90;99.90;;;;;;5037315;28;20045;-71
2023/05/20 06:17:55;;;;;;;1.48;1.10;;;12.90;99.90;;;;;;5045403;28;20041;-71
2023/05/20 06:20:21;;;;;;;1.52;1.42;;;12.90;99.90;;;;;;5042770;28;20071;-71
2023/05/20 06:22:47;;;;;;;1.25;1.25;;;13.00;99.90;;;;;;5046649;28;20095;-72
2023/05/20 06:25:13;;;;;;;1.90;1.75;;;13.00;99.90;;;;;;5046773;28;20045;-71
2023/05/20 06:27:39;;;;;;;1.58;1.48;;;13.10;99.90;;;;;;5051037;28;20099;-71
2023/05/20 06:30:05;;;;;;;1.85;1.73;;;13.10;99.90;;;;;;5046232;28;20052;-71
2023/05/20 06:32:31;;;;;;;1.80;0.95;;;13.10;99.90;;;;;;5045836;28;20132;-71
2023/05/20 06:34:57;;;;;;;1.60;1.50;;;13.20;99.90;;;;;;5046333;28;20128;-72
2023/05/20 06:37:23;;;;;;;0.70;0.70;;;13.20;99.90;;;;;;5049022;28;20522;-71
2023/05/20 06:39:52;;;;;;;1.48;1.33;;;13.30;99.90;;;;;;5049123;28;20046;-71
2023/05/20 06:42:20;;;;;;;1.23;1.13;;;13.40;99.90;;;;;;5043842;28;20398;-71
2023/05/20 06:44:46;;;;;;;1.10;1.00;;;13.60;99.90;;;;;;5042122;28;20051;-71
2023/05/20 06:47:16;;;;;;;2.75;1.63;;;13.70;99.90;;;;;;5039627;28;20144;-72
2023/05/20 06:49:42;;;;;;;1.52;1.42;;;13.80;99.90;;;;;;5039714;28;20793;-71
2023/05/20 06:52:08;;;;;;;0.32;0.32;;;13.90;99.70;;;;;;5044177;28;20067;-71
2023/05/20 06:54:38;;;;;;;2.75;1.25;;;14.00;99.90;;;;;;5045991;28;20464;-71
2023/05/20 06:57:08;;;;;;;1.27;1.05;;;14.20;99.20;;;;;;5044216;28;20099;-72
2023/05/20 06:59:37;;;;;;;0.70;0.70;;;14.40;98.70;;;;;;5041497;28;20101;-71
2023/05/20 07:02:03;;;;;;;2.25;1.55;;;14.50;95.90;;;;;;5046754;28;20043;-71
2023/05/20 07:04:29;;;;;;;0.85;0.85;;;14.50;95.40;;;;;;5048167;28;20041;-71
2023/05/20 07:06:56;;;;;;;1.58;1.48;;;14.60;96.30;;;;;;5041374;28;20541;-71
2023/05/20 07:09:22;;;;;;;1.58;1.13;;;14.70;96.30;;;;;;5043656;28;20056;-71
2023/05/20 07:11:49;;;;;;;1.10;1.00;;;14.80;94.40;;;;;;5044586;28;20052;-71
2023/05/20 07:14:15;;;;;;;1.10;1.00;;;14.90;95.80;;;;;;5046397;28;20084;-71
2023/05/20 07:16:42;;;;;;;0.98;0.98;;;15.00;95.20;;;;;;5049503;28;20506;-70
2023/05/20 07:19:07;;;;;;;0.57;0.57;;;15.10;95.00;;;;;;5041918;28;20635;-71
2023/05/20 07:21:33;;;;;;;1.38;0.95;;;15.30;95.40;;;;;;5044416;28;20455;-71
2023/05/20 07:23:59;;;;;;;1.25;0.88;;;15.30;93.30;;;;;;5046418;28;20087;-71
2023/05/20 07:26:25;;;;;;;1.70;1.35;;;15.50;93.20;;;;;;5048233;28;20568;-71
2023/05/20 07:28:50;;;;;;;1.38;1.33;;;15.60;93.60;;;;;;5045471;28;20052;-71
2023/05/20 07:31:16;;;;;;;2.47;1.77;;;15.60;92.90;;;;;;5050218;28;20402;-71
2023/05/20 07:33:42;;;;;;;4.97;1.20;;;15.60;93.40;;;;;;5056476;28;20056;-71
2023/05/20 07:36:07;;;;;;;0.55;0.43;;;15.70;92.70;;;;;;5050444;28;20569;-71
2023/05/20 07:38:33;;;;;;;0.70;0.70;;;15.80;91.60;;;;;;5046983;28;20555;-71
2023/05/20 07:40:59;;;;;;;0.95;0.95;;;15.90;91.70;;;;;;5048345;28;20070;-71
2023/05/20 07:43:25;;;;;;;0.90;0.90;;;16.10;91.30;;;;;;5042309;28;20064;-71
2023/05/20 07:45:50;;;;;;;0.70;0.70;;;16.20;91.60;;;;;;5040879;28;20065;-71
2023/05/20 07:48:16;;;;;;;2.30;2.10;;;16.30;91.20;;;;;;5043834;28;20049;-71
2023/05/20 07:50:43;;;;;;;2.05;1.30;;;16.30;90.20;;;;;;5046901;28;20051;-71
2023/05/20 07:53:08;;;;;;;1.00;1.00;;;16.40;90.10;;;;;;5045436;28;20139;-71
2023/05/20 07:55:35;;;;;;;1.42;1.33;;;16.60;88.70;;;;;;5046523;28;20056;-71
2023/05/20 07:58:01;;;;;;;2.00;1.13;;;16.60;87.00;;;;;;5053256;28;20421;-71
2023/05/20 08:00:27;;;;;;;1.00;1.00;;;16.60;86.70;;;;;;5045434;28;20124;-71
2023/05/20 08:02:52;;;;;;;2.33;2.15;;;16.70;87.30;;;;;;5041806;28;20557;-71
2023/05/20 08:05:18;;;;;;;1.65;0.82;;;16.80;86.90;;;;;;5040844;28;20059;-71
2023/05/20 08:07:44;;;;;;;1.50;1.40;;;16.90;85.20;;;;;;5046617;28;20446;-72
2023/05/20 08:10:10;;;;;;;2.40;1.55;;;16.90;85.20;;;;;;5041220;28;20048;-71
2023/05/20 08:12:36;;;;;;;1.50;1.40;;;17.00;84.10;;;;;;5048534;28;20059;-72
2023/05/20 08:15:02;;;;;;;1.58;0.65;;;17.10;86.40;;;;;;5040853;28;20033;-71
2023/05/20 08:17:27;;;;;;;1.95;1.80;;;17.30;86.20;;;;;;5039550;28;20538;-71
2023/05/20 08:19:53;;;;;;;1.30;1.25;;;17.40;84.10;;;;;;5053549;28;20089;-71
2023/05/20 08:22:19;;;;;;;1.08;0.98;;;17.40;83.60;;;;;;5043394;28;20065;-71
2023/05/20 08:24:44;;;;;;;1.38;1.27;;;17.50;85.10;;;;;;5042142;28;20037;-71
2023/05/20 08:27:10;;;;;;;8.13;1.50;;;17.50;84.10;;;;;;5042874;28;20123;-71
2023/05/20 08:29:36;;;;;;;1.48;1.33;;;17.60;84.40;;;;;;5045820;28;20044;-71
2023/05/20 08:32:02;;;;;;;1.65;0.90;;;17.80;83.50;;;;;;5047714;28;20048;-71
2023/05/20 08:34:28;;;;;;;1.83;1.65;;;17.90;81.40;;;;;;5040908;28;20102;-72
2023/05/20 08:36:54;;;;;;;2.30;2.08;;;18.00;81.50;;;;;;5039798;28;20049;-71
2023/05/20 08:39:19;;;;;;;2.30;1.80;;;18.00;79.60;;;;;;5045952;28;20422;-71
2023/05/20 08:41:46;;;;;;;1.42;1.13;;;18.00;80.20;;;;;;5041525;28;20568;-71
2023/05/20 08:44:11;;;;;;;1.77;1.50;;;18.10;80.10;;;;;;5037341;28;20048;-71
2023/05/20 08:46:39;;;;;;;2.95;1.67;;;18.10;76.70;;;;;;5042400;28;20725;-71
2023/05/20 08:49:06;;;;;;;0.77;0.77;;;18.10;76.30;;;;;;5044207;28;20041;-71
2023/05/20 08:51:34;;;;;;;4.70;1.67;;;18.10;77.10;;;;;;5045130;28;20571;-71
2023/05/20 08:54:01;;;;;;;2.30;1.60;;;18.10;76.40;;;;;;5041665;28;20056;-71
2023/05/20 08:56:27;;;;;;;1.80;1.70;;;18.30;76.00;;;;;;5051834;28;20114;-72
2023/05/20 08:58:52;;;;;;;2.28;1.58;;;18.40;75.00;;;;;;5041718;28;20049;-71
2023/05/20 09:01:22;;;;;;;1.25;1.20;;;18.40;74.10;;;;;;5044400;28;20037;-71
2023/05/20 09:03:48;;;;;;;1.63;1.52;;;18.40;73.60;;;;;;5046749;28;20139;-72
2023/05/20 09:06:19;;;;;;;2.58;2.35;;;18.40;73.70;;;;;;5047317;28;20124;-71
2023/05/20 09:08:47;;;;;;;2.75;2.55;;;18.40;73.30;;;;;;5051009;28;20056;-71
2023/05/20 09:11:13;;;;;;;1.23;1.23;;;18.50;72.10;;;;;;5044878;28;20049;-71
2023/05/20 09:13:39;;;;;;;1.65;1.55;;;18.40;72.60;;;;;;5047236;28;20106;-71
2023/05/20 09:16:05;;;;;;;2.80;2.60;;;18.40;72.80;;;;;;5046529;28;20049;-71
2023/05/20 09:18:31;;;;;;;1.70;1.27;;;18.50;73.30;;;;;;5047824;28;20045;-71
2023/05/20 09:20:56;;;;;;;1.40;1.13;;;18.70;71.40;;;;;;5054576;28;20054;-72
2023/05/20 09:23:24;;;;;;;2.17;1.00;;;18.70;70.80;;;;;;5054467;28;20120;-71
2023/05/20 09:25:50;;;;;;;1.70;1.60;;;18.50;69.30;;;;;;5044898;28;20107;-71
2023/05/20 09:28:19;;;;;;;3.20;1.88;;;18.80;72.90;;;;;;5046578;28;20055;-71
2023/05/20 09:30:47;;;;;;;9.18;2.15;;;18.90;72.70;;;;;;5046732;28;20486;-71
2023/05/20 09:33:13;;;;;;;2.33;1.35;;;19.00;71.50;;;;;;5040899;28;20083;-71
2023/05/20 09:35:40;;;;;;;1.58;1.48;;;19.00;70.80;;;;;;5042899;28;20717;-71
2023/05/20 09:38:08;;;;;;;1.85;1.67;;;19.10;70.80;;;;;;5042340;28;20076;-71
2023/05/20 09:40:37;;;;;;;2.30;0.77;;;19.10;70.80;;;;;;5038710;28;20041;-71
2023/05/20 09:43:06;;;;;;;2.70;1.48;;;19.30;69.60;;;;;;5040123;28;20171;-71
2023/05/20 09:45:33;;;;;;;0.88;0.88;;;19.20;67.20;;;;;;5039959;28;20098;-71
2023/05/20 09:48:00;;;;;;;1.23;1.13;;;19.20;69.40;;;;;;5046718;28;20052;-72
2023/05/20 09:50:27;;;;;;;1.50;1.42;;;19.20;67.50;;;;;;5041696;28;20048;-72
2023/05/20 09:52:54;;;;;;;2.85;2.60;;;19.20;68.70;;;;;;5041786;28;20839;-72
2023/05/20 09:55:21;;;;;;;2.70;2.50;;;19.20;69.50;;;;;;5044156;28;20037;-72
2023/05/20 09:57:47;;;;;;;3.17;2.72;;;19.30;67.40;;;;;;5049128;28;20048;-72
2023/05/20 10:00:16;;;;;;;1.85;1.75;;;19.50;69.10;;;;;;5044027;28;20486;-71
2023/05/20 10:02:50;;;;;;;2.58;2.38;;;19.50;66.60;;;;;;5043023;28;20089;-71
2023/05/20 10:05:27;;;;;;;2.83;2.60;;;19.20;66.50;;;;;;5042585;28;20116;-72
2023/05/20 10:08:17;;;;;;;1.55;1.45;;;19.30;68.90;;;;;;5048281;28;20045;-72
2023/05/20 10:10:51;;;;;;;1.08;0.82;;;19.40;66.50;;;;;;5044241;28;20061;-71
2023/05/20 10:13:20;;;;;;;3.53;3.33;;;19.40;65.60;;;;;;5027847;28;20045;-72
2023/05/20 10:16:13;;;;;;;1.38;1.27;;;19.40;65.70;;;;;;5031090;28;20052;-72
2023/05/20 10:19:04;;;;;;;1.73;1.63;;;19.50;65.70;;;;;;5047835;28;20052;-72
2023/05/20 10:21:31;;;;;;;0.88;0.88;;;19.70;67.00;;;;;;5042993;28;20410;-72
2023/05/20 10:24:10;;;;;;;2.78;2.58;;;20.00;66.40;;;;;;5048674;28;20056;-72
2023/05/20 10:26:37;;;;;;;1.40;1.30;;;20.10;65.30;;;;;;5047546;28;20049;-71
2023/05/20 10:29:23;;;;;;;14.73;3.37;;;20.10;64.40;;;;;;5046209;28;20068;-72
2023/05/20 10:31:50;;;;;;;1.95;1.85;;;19.60;65.40;;;;;;5046983;28;20513;-71
2023/05/20 10:34:17;;;;;;;4.35;2.35;;;19.30;65.70;;;;;;5045139;28;20053;-72
2023/05/20 10:36:56;;;;;;;1.45;1.35;;;19.00;67.20;;;;;;5048154;28;20052;-71
2023/05/20 10:39:29;;;;;;;1.05;1.05;;;18.90;66.60;;;;;;5047392;28;20063;-72
2023/05/20 10:42:08;;;;;;;0.82;0.82;;;18.80;65.70;;;;;;5042995;28;20486;-71
2023/05/20 10:44:46;;;;;;;2.60;2.13;;;18.70;66.30;;;;;;5052112;28;20044;-72
2023/05/20 10:47:12;;;;;;;5.28;1.88;;;18.60;66.90;;;;;;5045672;28;20138;-71
2023/05/20 10:49:45;;;;;;;1.35;1.15;;;18.80;66.50;;;;;;5048315;28;20056;-72
2023/05/20 10:52:12;;;;;;;1.25;1.20;;;19.10;68.90;;;;;;5050906;28;20064;-72
2023/05/20 10:54:55;;;;;;;2.13;1.80;;;19.30;65.50;;;;;;5043247;28;20107;-72
2023/05/20 10:57:21;;;;;;;1.88;1.77;;;19.40;63.20;;;;;;5052469;28;20528;-72
2023/05/20 10:59:47;;;;;;;6.43;2.22;;;19.20;63.40;;;;;;5048626;28;20072;-72
2023/05/20 11:02:15;;;;;;;1.65;1.55;;;19.00;63.40;;;;;;5044480;28;20049;-72
2023/05/20 11:04:45;;;;;;;2.10;0.80;;;19.10;61.90;;;;;;5049035;28;20386;-72
2023/05/20 11:07:11;;;;;;;1.20;1.20;;;19.40;62.00;;;;;;5048236;28;20041;-72
2023/05/20 11:09:37;;;;;;;7.88;2.05;;;19.80;61.60;;;;;;5049993;28;20603;-72
2023/05/20 11:12:03;;;;;;;2.05;1.45;;;19.90;62.60;;;;;;5048067;28;20067;-72
2023/05/20 11:14:29;;;;;;;0.90;0.90;;;20.10;60.70;;;;;;5046963;28;20186;-72
2023/05/20 11:16:58;;;;;;;2.10;1.35;;;20.30;61.10;;;;;;5048228;28;20040;-71
2023/05/20 11:19:25;;;;;;;0.80;0.80;;;20.10;60.80;;;;;;5042894;28;20041;-72
2023/05/20 11:21:51;;;;;;;30.05;1.83;;;19.80;60.90;;;;;;5048212;28;20051;-72
2023/05/20 11:24:25;;;;;;;1.90;1.80;;;19.80;61.30;;;;;;5044670;28;20045;-72
2023/05/20 11:26:52;;;;;;;2.60;1.70;;;20.10;61.10;;;;;;5043931;28;20057;-72
2023/05/20 11:29:20;;;;;;;1.42;1.33;;;20.40;61.50;;;;;;5044520;28;20049;-72
2023/05/20 11:31:47;;;;;;;1.90;1.80;;;20.50;60.60;;;;;;5043531;28;20098;-71
2023/05/20 11:34:13;;;;;;;1.48;1.38;;;20.50;59.50;;;;;;5043204;28;20071;-71
2023/05/20 11:36:42;;;;;;;1.58;1.48;;;20.40;59.00;;;;;;5050595;28;20045;-71
2023/05/20 11:39:13;;;;;;;3.35;2.30;;;20.40;59.50;;;;;;5064763;28;20044;-71
2023/05/20 11:41:41;;;;;;;1.27;1.27;;;20.30;59.80;;;;;;5044841;28;20056;-72
2023/05/20 11:44:10;;;;;;;0.88;0.88;;;20.10;60.90;;;;;;5042788;28;20055;-72
2023/05/20 11:46:44;;;;;;;0.77;0.77;;;20.10;61.10;;;;;;5038127;28;20049;-72
2023/05/20 11:49:12;;;;;;;1.02;1.00;;;20.00;60.90;;;;;;5042804;28;20049;-72
2023/05/20 11:51:38;;;;;;;0.73;0.73;;;20.10;61.30;;;;;;5042896;28;20056;-72
2023/05/20 11:54:06;;;;;;;1.35;0.93;;;20.10;60.20;;;;;;5042743;28;20055;-72
2023/05/20 11:56:41;;;;;;;2.17;1.38;;;19.70;59.80;;;;;;5043224;28;20040;-72
2023/05/20 11:59:09;;;;;;;1.05;1.02;;;19.50;61.00;;;;;;5043651;28;20075;-72
2023/05/20 12:01:39;;;;;;;1.00;0.98;;;19.30;62.30;;;;;;5043362;28;20068;-72
2023/05/20 12:04:09;;;;;;;2.05;1.67;;;19.20;63.60;;;;;;5043420;28;20501;-72
2023/05/20 12:06:36;;;;;;;1.83;1.73;;;19.20;65.20;;;;;;5042960;28;20041;-72
2023/05/20 12:09:05;;;;;;;0.70;0.70;;;19.30;63.70;;;;;;5024050;28;20118;-72
2023/05/20 12:11:38;;;;;;;4.63;1.90;;;19.50;61.90;;;;;;5044203;28;20048;-72
2023/05/20 12:14:04;;;;;;;3.40;2.05;;;19.50;62.50;;;;;;5046033;28;20041;-72
2023/05/20 12:16:31;;;;;;;1.58;1.48;;;19.40;62.40;;;;;;5044067;28;20049;-72
2023/05/20 12:18:57;;;;;;;1.00;1.00;;;19.40;62.10;;;;;;5041712;28;20106;-72
2023/05/20 12:21:23;;;;;;;1.20;1.10;;;19.50;64.50;;;;;;5045156;28;20029;-72
2023/05/20 12:23:49;;;;;;;1.17;1.08;;;19.60;62.40;;;;;;5045877;28;20049;-72
2023/05/20 12:26:14;;;;;;;1.55;1.45;;;19.70;63.10;;;;;;5043477;28;20660;-72
2023/05/20 12:28:40;;;;;;;1.60;1.48;;;19.60;62.20;;;;;;5045182;28;20040;-72
2023/05/20 12:31:06;;;;;;;0.90;0.90;;;19.50;63.00;;;;;;5046171;28;20043;-72
2023/05/20 12:33:32;;;;;;;3.33;3.03;;;19.80;64.30;;;;;;5043986;28;20154;-71
2023/05/20 12:35:58;;;;;;;1.05;1.02;;;20.10;61.40;;;;;;5044726;28;20044;-72
2023/05/20 12:38:23;;;;;;;0.93;0.93;;;20.10;61.20;;;;;;5044449;28;20049;-70
2023/05/20 12:40:49;;;;;;;0.75;0.75;;;20.30;60.00;;;;;;5040816;28;20056;-72
2023/05/20 12:43:15;;;;;;;1.20;1.10;;;20.60;59.90;;;;;;5041558;28;20037;-72
2023/05/20 12:45:40;;;;;;;1.50;1.38;;;20.70;58.40;;;;;;5038602;28;20119;-71
2023/05/20 12:48:06;;;;;;;1.80;1.70;;;20.50;58.60;;;;;;5040338;28;20059;-71